KHOB/HOB METAR and TAF weather

Enter ICAO airport designator
Station Type Date Time Source
KHOB METAR 2018/12/15 02:15 UTC NOAA

KHOB 150215Z AUTO 28007KT 10SM CLR 01/M06 A3034 RMK AO2


Station Type Date Time Source
KHOB Decoded METAR 2018/12/15 02:15 UTC NOAA

Hobbs / Lea County, NM, United States (KHOB) 32-41N 103-13W
Dec 14, 2018 - 09:15 PM EST / 2018.12.15 0215 UTC
Wind: from the W (280 degrees) at 8 MPH (7 KT):0
Visibility: 10 mile(s):0
Sky conditions: clear
Temperature: 33 F (1 C)
Windchill: 26 F (-3 C):1
Dew Point: 21 F (-6 C)
Relative Humidity: 59%
Pressure (altimeter): 30.34 in. Hg (1027 hPa)
ob: KHOB 150215Z AUTO 28007KT 10SM CLR 01/M06 A3034 RMK AO2
cycle: 2

Station Type Date Time Source
KHOB TAF 2018/12/14 18:39 UTC NOAA

TAF KHOB 141736Z 1418/1518 32014KT P6SM SKC
FM150000 28006KT P6SM FEW250


Example: see airport list